Terminal Aerodrome Forecast
Issued by NWS

Home | Current Version | Previous Version | Text Only | Print | Product List | Glossary On
Versions: 1 2 3 4 5 6 7 8 9 10 11 12 13 14 15 16 17 18 19 20 21 22 23 24 25 26 27 28 29
000
FTUS44 KTSA 252300
TAFRVS
TAF
KRVS 252320Z 2600/2624 18010G18KT P6SM VCTS BKN060CB BKN100
      TEMPO 2600/2602 3SM TSRA BKN025CB
     FM260200 18010KT P6SM VCTS OVC040CB
      TEMPO 2602/2606 5SM RA BKN035
     FM260600 20002KT 3SM BR OVC007
     FM261500 21005KT P6SM SCT250
     FM261800 18007KT P6SM SCT040=

USA.gov is the U.S. government's official web portal to all federal, state and local government web resources and services.